createdAt,value
2023-03-06T00:01:24.390Z,8.00
2023-03-06T00:06:26.034Z,7.13
2023-03-06T00:11:27.556Z,6.97
2023-03-06T00:23:16.120Z,4.30
2023-03-06T00:28:17.813Z,3.73
2023-03-06T00:40:12.321Z,3.97
2023-03-06T00:45:14.560Z,4.13
2023-03-06T00:50:16.234Z,4.00
2023-03-06T00:55:17.792Z,3.70
2023-03-06T01:00:19.616Z,3.93
2023-03-06T01:05:24.810Z,3.57
2023-03-06T01:10:27.259Z,4.00
2023-03-06T01:15:29.294Z,4.00
2023-03-06T01:20:32.216Z,3.87
2023-03-06T01:25:33.794Z,4.00
2023-03-06T01:30:35.511Z,4.30
2023-03-06T01:35:38.573Z,4.23
2023-03-06T01:40:40.261Z,4.57
2023-03-06T01:45:41.728Z,4.17
2023-03-06T01:50:43.859Z,4.83
2023-03-06T01:55:45.535Z,4.87
2023-03-06T02:00:47.261Z,4.50
2023-03-06T02:05:48.878Z,4.77
2023-03-06T02:11:18.469Z,4.87
2023-03-06T02:16:25.673Z,5.47
2023-03-06T02:21:32.680Z,5.50
2023-03-06T02:26:36.237Z,4.97
2023-03-06T02:31:38.026Z,5.73
2023-03-06T02:36:43.341Z,5.53
2023-03-06T02:41:45.392Z,6.17
2023-03-06T02:46:48.680Z,7.20
2023-03-06T02:51:50.360Z,7.13
2023-03-06T02:56:51.908Z,6.20
2023-03-06T03:01:53.789Z,7.40
2023-03-06T03:06:55.423Z,6.63
2023-03-06T03:11:57.633Z,7.60
2023-03-06T03:16:59.397Z,7.80
2023-03-06T03:22:01.843Z,6.87
2023-03-06T03:27:03.659Z,7.40
2023-03-06T03:32:06.211Z,7.07
2023-03-06T03:37:09.252Z,7.20
2023-03-06T03:42:12.434Z,7.13
2023-03-06T03:47:14.831Z,7.10
2023-03-06T03:52:16.683Z,7.70
2023-03-06T03:57:18.476Z,7.77
2023-03-06T04:02:25.459Z,7.03
2023-03-06T04:07:47.558Z,6.63
2023-03-06T04:12:50.288Z,7.33
2023-03-06T04:17:52.400Z,7.90
2023-03-06T04:22:57.554Z,7.47
2023-03-06T04:27:59.503Z,7.80
2023-03-06T04:33:03.187Z,8.07
2023-03-06T04:38:06.145Z,8.23
2023-03-06T04:43:09.230Z,7.73
2023-03-06T04:48:14.639Z,7.53
2023-03-06T04:53:20.214Z,8.23
2023-03-06T04:58:21.826Z,9.40
2023-03-06T05:03:23.361Z,9.57
2023-03-06T05:08:24.914Z,9.53
2023-03-06T05:13:27.086Z,8.83
2023-03-06T05:18:29.612Z,8.90
2023-03-06T05:23:33.149Z,9.47
2023-03-06T05:28:35.161Z,9.77
2023-03-06T05:33:36.958Z,9.73
2023-03-06T05:38:38.543Z,9.20
2023-03-06T05:43:41.129Z,9.10
2023-03-06T05:48:42.636Z,9.90
2023-03-06T05:53:44.202Z,9.90
2023-03-06T05:58:46.513Z,10.67
2023-03-06T06:03:48.336Z,10.70
2023-03-06T06:08:50.092Z,9.60
2023-03-06T06:13:51.702Z,9.57
2023-03-06T06:18:53.246Z,10.90
2023-03-06T06:23:54.982Z,11.30
2023-03-06T06:28:57.998Z,11.07
2023-03-06T06:34:01.372Z,10.77
2023-03-06T06:39:03.579Z,11.90
2023-03-06T06:44:12.527Z,11.97
2023-03-06T06:49:14.800Z,10.67
2023-03-06T06:54:16.431Z,10.87
2023-03-06T06:59:18.128Z,13.07
2023-03-06T07:04:20.082Z,12.37
2023-03-06T07:09:22.304Z,12.67
2023-03-06T07:14:24.113Z,13.40
2023-03-06T07:19:25.862Z,11.73
2023-03-06T07:24:28.041Z,12.10
2023-03-06T07:29:29.701Z,12.77
2023-03-06T07:34:31.329Z,11.07
2023-03-06T07:39:32.875Z,12.47
2023-03-06T07:44:38.075Z,11.63
2023-03-06T07:49:39.888Z,11.53
2023-03-06T07:54:42.085Z,12.07
2023-03-06T07:59:43.648Z,12.03
2023-03-06T08:04:45.304Z,11.97
2023-03-06T08:09:46.862Z,11.33
2023-03-06T08:14:48.460Z,10.67
2023-03-06T08:19:51.114Z,11.03
2023-03-06T08:24:55.798Z,11.47
2023-03-06T08:29:57.465Z,10.73
2023-03-06T08:34:58.997Z,10.73
2023-03-06T08:40:02.572Z,11.17
2023-03-06T08:45:05.198Z,10.20
2023-03-06T08:50:07.052Z,11.23
2023-03-06T08:55:09.178Z,12.37
2023-03-06T09:00:11.465Z,11.57
2023-03-06T09:05:13.091Z,11.10
2023-03-06T09:10:16.473Z,11.20
2023-03-06T09:15:20.117Z,11.17
2023-03-06T09:20:22.378Z,10.00
2023-03-06T09:25:24.776Z,9.90
2023-03-06T09:30:26.656Z,10.17
2023-03-06T09:35:28.258Z,10.47
2023-03-06T09:41:02.085Z,10.33
2023-03-06T09:46:16.664Z,10.70
2023-03-06T09:51:22.059Z,10.47
2023-03-06T09:56:30.085Z,11.23
2023-03-06T10:01:35.350Z,10.57
2023-03-06T10:06:47.657Z,11.33
2023-03-06T10:11:55.795Z,10.90
2023-03-06T10:16:58.506Z,9.97
2023-03-06T10:22:12.096Z,11.77
2023-03-06T10:27:37.766Z,10.63
2023-03-06T10:32:49.446Z,9.53
2023-03-06T10:37:59.806Z,9.37
2023-03-06T10:43:11.094Z,8.90
2023-03-06T10:48:21.970Z,7.83
2023-03-06T10:53:31.363Z,8.00
2023-03-06T10:58:33.532Z,7.30
2023-03-06T11:03:37.014Z,7.37
2023-03-06T11:08:39.497Z,7.30
2023-03-06T11:13:43.516Z,6.93
2023-03-06T11:18:56.162Z,6.90
2023-03-06T11:24:19.559Z,7.73
2023-03-06T11:29:30.813Z,7.80
2023-03-06T11:35:03.387Z,7.87
2023-03-06T11:40:11.052Z,7.83
2023-03-06T11:45:32.017Z,8.23
2023-03-06T11:50:36.773Z,8.03
2023-03-06T11:55:59.266Z,8.17
2023-03-06T12:01:33.489Z,7.80
2023-03-06T12:06:38.972Z,7.07
2023-03-06T12:11:57.676Z,7.07
2023-03-06T12:17:08.828Z,7.40
2023-03-06T12:22:31.845Z,6.57
2023-03-06T12:27:58.941Z,6.93
2023-03-06T12:33:35.999Z,8.03
2023-03-06T12:38:52.933Z,7.50
2023-03-06T12:44:07.318Z,7.70
2023-03-06T12:49:20.124Z,8.73
2023-03-06T12:54:29.927Z,8.53
2023-03-06T12:59:40.243Z,7.90
2023-03-06T13:05:12.664Z,7.93
2023-03-06T13:10:35.359Z,7.63
2023-03-06T13:16:05.134Z,7.27
2023-03-06T13:21:41.437Z,7.23
2023-03-06T13:26:42.903Z,7.70
2023-03-06T13:31:44.522Z,7.40
2023-03-06T13:36:46.192Z,7.03
2023-03-06T13:41:58.235Z,7.93
2023-03-06T13:47:01.735Z,7.60
2023-03-06T13:52:09.230Z,8.17
2023-03-06T13:57:38.608Z,7.33
2023-03-06T14:02:49.472Z,7.30
2023-03-06T14:08:09.527Z,7.47
2023-03-06T14:13:32.206Z,6.70
2023-03-06T14:18:49.630Z,7.07
2023-03-06T14:24:01.031Z,7.00
2023-03-06T14:29:04.049Z,7.23
2023-03-06T14:34:07.298Z,7.47
2023-03-06T14:39:13.747Z,7.37
2023-03-06T14:44:17.635Z,9.00
2023-03-06T14:49:21.179Z,8.00
2023-03-06T14:54:29.282Z,8.00
2023-03-06T14:59:35.202Z,8.63
2023-03-06T15:04:58.661Z,9.10
2023-03-06T15:10:00.897Z,8.40
2023-03-06T15:15:05.246Z,8.90
2023-03-06T15:20:27.778Z,9.00
2023-03-06T15:25:30.613Z,9.10
2023-03-06T15:30:36.595Z,7.90
2023-03-06T15:35:38.601Z,8.43
2023-03-06T15:40:40.380Z,7.47
2023-03-06T15:45:42.081Z,7.33
2023-03-06T15:50:43.750Z,7.43
2023-03-06T15:55:46.850Z,7.07
2023-03-06T16:00:48.547Z,6.80
2023-03-06T16:05:50.169Z,7.47
2023-03-06T16:10:52.490Z,7.57
2023-03-06T16:15:55.608Z,7.07
2023-03-06T16:20:57.293Z,7.30
2023-03-06T16:25:59.712Z,6.93
2023-03-06T16:31:01.387Z,7.07
2023-03-06T16:36:13.037Z,7.13
2023-03-06T16:41:16.100Z,7.60
2023-03-06T16:46:20.502Z,7.97
2023-03-06T16:51:23.304Z,8.10
2023-03-06T16:56:25.180Z,8.60
2023-03-06T17:01:27.350Z,8.67
2023-03-06T17:06:30.298Z,8.63
2023-03-06T17:11:32.824Z,9.60
2023-03-06T17:16:34.515Z,8.73
2023-03-06T17:21:38.459Z,8.73
2023-03-06T17:26:40.216Z,8.93
2023-03-06T17:31:42.047Z,9.37
2023-03-06T17:36:44.043Z,9.13
2023-03-06T17:41:46.535Z,9.87
2023-03-06T17:46:48.592Z,9.00
2023-03-06T17:51:50.288Z,8.40
2023-03-06T17:56:53.247Z,9.30
2023-03-06T18:01:58.383Z,8.77
2023-03-06T18:07:00.242Z,9.33
2023-03-06T18:12:01.946Z,9.77
2023-03-06T18:17:03.809Z,9.27
2023-03-06T18:22:05.466Z,10.07
2023-03-06T18:27:07.148Z,9.13
2023-03-06T18:32:10.862Z,8.60
2023-03-06T18:37:12.470Z,9.57
2023-03-06T18:42:14.127Z,8.73
2023-03-06T18:47:15.818Z,9.37
2023-03-06T18:52:17.488Z,10.00
2023-03-06T18:57:19.019Z,10.17
2023-03-06T19:02:21.074Z,9.90
2023-03-06T19:07:22.692Z,9.87
2023-03-06T19:12:24.338Z,10.07
2023-03-06T19:17:26.010Z,9.80
2023-03-06T19:22:27.598Z,9.93
2023-03-06T19:27:30.105Z,11.70
2023-03-06T19:32:32.524Z,9.57
2023-03-06T19:37:34.463Z,9.40
2023-03-06T19:42:36.395Z,8.27
2023-03-06T19:47:38.000Z,8.27
2023-03-06T19:52:39.574Z,7.97
2023-03-06T19:57:45.438Z,7.70
2023-03-06T20:02:47.434Z,9.30
2023-03-06T20:07:49.627Z,7.80
2023-03-06T20:12:51.327Z,7.23
2023-03-06T20:17:52.876Z,7.07
2023-03-06T20:22:54.884Z,7.67
2023-03-06T20:27:56.742Z,6.83
2023-03-06T20:32:58.450Z,6.67
2023-03-06T20:38:00.664Z,6.67
2023-03-06T20:43:02.442Z,6.63
2023-03-06T20:48:04.006Z,6.83
2023-03-06T20:53:05.689Z,7.10
2023-03-06T20:58:07.319Z,6.80
2023-03-06T21:03:09.222Z,7.03
2023-03-06T21:08:10.779Z,6.57
2023-03-06T21:13:12.798Z,7.23
2023-03-06T21:18:14.803Z,7.33
2023-03-06T21:23:16.576Z,7.63
2023-03-06T21:28:19.087Z,8.03
2023-03-06T21:33:20.880Z,7.40
2023-03-06T21:38:22.466Z,7.97
2023-03-06T21:43:24.378Z,8.30
2023-03-06T21:48:26.025Z,8.90
2023-03-06T21:53:27.577Z,8.03
2023-03-06T21:58:29.481Z,7.93
2023-03-06T22:03:31.104Z,8.60
2023-03-06T22:08:32.624Z,8.83
2023-03-06T22:13:34.281Z,8.60
2023-03-06T22:18:36.476Z,8.17
2023-03-06T22:23:38.697Z,9.07
2023-03-06T22:28:41.145Z,9.27
2023-03-06T22:33:43.142Z,7.83
2023-03-06T22:38:45.733Z,8.13
2023-03-06T22:43:48.354Z,8.27
2023-03-06T22:48:50.103Z,8.03
2023-03-06T22:53:51.974Z,8.17
2023-03-06T22:58:53.615Z,8.40
2023-03-06T23:03:57.567Z,7.77
2023-03-06T23:09:03.844Z,9.23
2023-03-06T23:14:06.116Z,7.40
2023-03-06T23:19:26.705Z,7.67
2023-03-06T23:24:46.883Z,7.60
2023-03-06T23:29:55.248Z,8.37
2023-03-06T23:34:56.848Z,7.10
2023-03-06T23:39:58.478Z,6.77
2023-03-06T23:45:00.175Z,6.83
2023-03-06T23:50:02.707Z,7.33
2023-03-06T23:55:06.697Z,6.77
